sensor_id;sensor_type;location;lat;lon;timestamp;P1;durP1;ratioP1;P2;durP2;ratioP2
31808;SDS011;18379;48.208;-1.518;2022-12-16T00:01:24;24.60;;;22.47;;
31808;SDS011;18379;48.208;-1.518;2022-12-16T00:06:28;23.73;;;21.70;;
31808;SDS011;18379;48.208;-1.518;2022-12-16T00:11:31;35.03;;;30.57;;
31808;SDS011;18379;48.208;-1.518;2022-12-16T00:16:32;27.50;;;24.90;;
31808;SDS011;18379;48.208;-1.518;2022-12-16T00:21:33;26.00;;;23.70;;
31808;SDS011;18379;48.208;-1.518;2022-12-16T00:26:34;28.10;;;25.43;;
31808;SDS011;18379;48.208;-1.518;2022-12-16T00:31:34;28.70;;;25.83;;
31808;SDS011;18379;48.208;-1.518;2022-12-16T00:36:35;30.33;;;27.33;;
31808;SDS011;18379;48.208;-1.518;2022-12-16T00:41:36;28.23;;;25.47;;
31808;SDS011;18379;48.208;-1.518;2022-12-16T00:46:37;26.97;;;24.23;;
31808;SDS011;18379;48.208;-1.518;2022-12-16T00:51:39;26.60;;;23.70;;
31808;SDS011;18379;48.208;-1.518;2022-12-16T00:56:40;29.23;;;26.17;;
31808;SDS011;18379;48.208;-1.518;2022-12-16T01:01:41;45.73;;;33.83;;
31808;SDS011;18379;48.208;-1.518;2022-12-16T01:06:41;39.63;;;31.33;;
31808;SDS011;18379;48.208;-1.518;2022-12-16T01:11:42;30.93;;;27.70;;
31808;SDS011;18379;48.208;-1.518;2022-12-16T01:16:43;29.77;;;26.50;;
31808;SDS011;18379;48.208;-1.518;2022-12-16T01:21:44;34.27;;;30.57;;
31808;SDS011;18379;48.208;-1.518;2022-12-16T01:26:46;27.97;;;25.43;;
31808;SDS011;18379;48.208;-1.518;2022-12-16T01:31:50;25.50;;;22.97;;
31808;SDS011;18379;48.208;-1.518;2022-12-16T01:36:50;34.10;;;29.30;;
31808;SDS011;18379;48.208;-1.518;2022-12-16T01:41:51;28.30;;;25.13;;
31808;SDS011;18379;48.208;-1.518;2022-12-16T01:46:53;29.90;;;25.03;;
31808;SDS011;18379;48.208;-1.518;2022-12-16T01:51:58;23.57;;;21.30;;
31808;SDS011;18379;48.208;-1.518;2022-12-16T01:57:05;26.17;;;23.77;;
31808;SDS011;18379;48.208;-1.518;2022-12-16T02:02:11;26.23;;;23.73;;
31808;SDS011;18379;48.208;-1.518;2022-12-16T02:07:13;65.43;;;38.13;;
31808;SDS011;18379;48.208;-1.518;2022-12-16T02:12:20;27.73;;;24.80;;
31808;SDS011;18379;48.208;-1.518;2022-12-16T02:22:48;32.13;;;28.93;;
31808;SDS011;18379;48.208;-1.518;2022-12-16T02:27:54;21.93;;;20.13;;
31808;SDS011;18379;48.208;-1.518;2022-12-16T02:33:13;25.80;;;23.10;;
31808;SDS011;18379;48.208;-1.518;2022-12-16T02:43:54;22.80;;;20.33;;
31808;SDS011;18379;48.208;-1.518;2022-12-16T02:54:12;26.23;;;23.63;;
31808;SDS011;18379;48.208;-1.518;2022-12-16T02:59:17;24.30;;;21.93;;
31808;SDS011;18379;48.208;-1.518;2022-12-16T03:04:42;22.70;;;20.43;;
31808;SDS011;18379;48.208;-1.518;2022-12-16T03:09:48;23.33;;;21.23;;
31808;SDS011;18379;48.208;-1.518;2022-12-16T03:14:51;23.00;;;20.80;;
31808;SDS011;18379;48.208;-1.518;2022-12-16T03:19:55;22.53;;;20.43;;
31808;SDS011;18379;48.208;-1.518;2022-12-16T03:25:18;25.77;;;22.17;;
31808;SDS011;18379;48.208;-1.518;2022-12-16T03:30:22;22.63;;;20.53;;
31808;SDS011;18379;48.208;-1.518;2022-12-16T03:35:33;23.03;;;20.93;;
31808;SDS011;18379;48.208;-1.518;2022-12-16T03:40:40;30.90;;;24.93;;
31808;SDS011;18379;48.208;-1.518;2022-12-16T03:45:43;28.70;;;25.67;;
31808;SDS011;18379;48.208;-1.518;2022-12-16T03:50:45;29.00;;;24.20;;
31808;SDS011;18379;48.208;-1.518;2022-12-16T03:55:46;27.53;;;24.60;;
31808;SDS011;18379;48.208;-1.518;2022-12-16T04:00:46;31.67;;;27.27;;
31808;SDS011;18379;48.208;-1.518;2022-12-16T04:05:47;25.20;;;22.60;;
31808;SDS011;18379;48.208;-1.518;2022-12-16T04:10:51;24.00;;;21.50;;
31808;SDS011;18379;48.208;-1.518;2022-12-16T04:16:15;26.17;;;23.23;;
31808;SDS011;18379;48.208;-1.518;2022-12-16T04:21:34;27.00;;;24.20;;
31808;SDS011;18379;48.208;-1.518;2022-12-16T04:26:54;23.90;;;21.47;;
31808;SDS011;18379;48.208;-1.518;2022-12-16T04:32:13;31.03;;;27.70;;
31808;SDS011;18379;48.208;-1.518;2022-12-16T04:37:14;32.77;;;25.80;;
31808;SDS011;18379;48.208;-1.518;2022-12-16T04:42:33;26.53;;;23.87;;
31808;SDS011;18379;48.208;-1.518;2022-12-16T04:47:53;23.77;;;21.30;;
31808;SDS011;18379;48.208;-1.518;2022-12-16T04:53:13;29.43;;;25.33;;
31808;SDS011;18379;48.208;-1.518;2022-12-16T04:58:32;28.13;;;24.90;;
31808;SDS011;18379;48.208;-1.518;2022-12-16T05:03:51;24.80;;;22.37;;
31808;SDS011;18379;48.208;-1.518;2022-12-16T05:09:11;27.63;;;23.73;;
31808;SDS011;18379;48.208;-1.518;2022-12-16T05:14:30;26.00;;;23.33;;
31808;SDS011;18379;48.208;-1.518;2022-12-16T05:19:49;27.13;;;23.27;;
31808;SDS011;18379;48.208;-1.518;2022-12-16T05:25:09;29.83;;;24.57;;
31808;SDS011;18379;48.208;-1.518;2022-12-16T05:30:28;24.40;;;22.20;;
31808;SDS011;18379;48.208;-1.518;2022-12-16T05:35:47;27.00;;;23.47;;
31808;SDS011;18379;48.208;-1.518;2022-12-16T05:41:07;28.37;;;24.47;;
31808;SDS011;18379;48.208;-1.518;2022-12-16T05:46:26;23.90;;;21.47;;
31808;SDS011;18379;48.208;-1.518;2022-12-16T05:51:45;27.17;;;24.33;;
31808;SDS011;18379;48.208;-1.518;2022-12-16T05:57:05;29.37;;;24.13;;
31808;SDS011;18379;48.208;-1.518;2022-12-16T06:02:24;24.17;;;21.93;;
31808;SDS011;18379;48.208;-1.518;2022-12-16T06:07:49;29.87;;;26.57;;
31808;SDS011;18379;48.208;-1.518;2022-12-16T06:13:12;30.33;;;24.57;;
31808;SDS011;18379;48.208;-1.518;2022-12-16T06:18:32;27.23;;;24.40;;
31808;SDS011;18379;48.208;-1.518;2022-12-16T06:23:51;25.80;;;23.20;;
31808;SDS011;18379;48.208;-1.518;2022-12-16T06:29:10;42.43;;;30.13;;
31808;SDS011;18379;48.208;-1.518;2022-12-16T06:34:37;35.07;;;27.97;;
31808;SDS011;18379;48.208;-1.518;2022-12-16T06:39:56;26.87;;;23.30;;
31808;SDS011;18379;48.208;-1.518;2022-12-16T06:45:15;28.83;;;25.77;;
31808;SDS011;18379;48.208;-1.518;2022-12-16T06:50:35;35.73;;;27.67;;
31808;SDS011;18379;48.208;-1.518;2022-12-16T06:55:54;25.83;;;23.37;;
31808;SDS011;18379;48.208;-1.518;2022-12-16T07:01:14;39.27;;;28.83;;
31808;SDS011;18379;48.208;-1.518;2022-12-16T07:06:33;33.30;;;27.03;;
31808;SDS011;18379;48.208;-1.518;2022-12-16T07:11:52;27.47;;;24.20;;
31808;SDS011;18379;48.208;-1.518;2022-12-16T07:17:11;35.23;;;27.30;;
31808;SDS011;18379;48.208;-1.518;2022-12-16T07:22:31;27.77;;;24.87;;
31808;SDS011;18379;48.208;-1.518;2022-12-16T07:27:50;26.10;;;23.40;;
31808;SDS011;18379;48.208;-1.518;2022-12-16T07:33:10;31.83;;;26.70;;
31808;SDS011;18379;48.208;-1.518;2022-12-16T07:38:29;28.27;;;24.03;;
31808;SDS011;18379;48.208;-1.518;2022-12-16T07:43:48;28.57;;;24.23;;
31808;SDS011;18379;48.208;-1.518;2022-12-16T07:49:07;52.00;;;37.40;;
31808;SDS011;18379;48.208;-1.518;2022-12-16T07:54:27;26.53;;;23.73;;
31808;SDS011;18379;48.208;-1.518;2022-12-16T07:59:46;57.23;;;36.17;;
31808;SDS011;18379;48.208;-1.518;2022-12-16T08:05:06;31.37;;;27.00;;
31808;SDS011;18379;48.208;-1.518;2022-12-16T08:10:25;29.27;;;26.10;;
31808;SDS011;18379;48.208;-1.518;2022-12-16T08:15:45;61.27;;;44.93;;
31808;SDS011;18379;48.208;-1.518;2022-12-16T08:21:04;52.13;;;40.07;;
31808;SDS011;18379;48.208;-1.518;2022-12-16T08:26:24;27.97;;;25.00;;
31808;SDS011;18379;48.208;-1.518;2022-12-16T08:31:43;53.80;;;41.10;;
31808;SDS011;18379;48.208;-1.518;2022-12-16T08:37:03;52.77;;;38.23;;
31808;SDS011;18379;48.208;-1.518;2022-12-16T08:42:22;30.67;;;26.07;;
31808;SDS011;18379;48.208;-1.518;2022-12-16T08:47:42;52.90;;;40.53;;
31808;SDS011;18379;48.208;-1.518;2022-12-16T08:53:01;39.93;;;32.93;;
31808;SDS011;18379;48.208;-1.518;2022-12-16T08:58:20;31.80;;;28.73;;
31808;SDS011;18379;48.208;-1.518;2022-12-16T09:03:40;52.70;;;42.33;;
31808;SDS011;18379;48.208;-1.518;2022-12-16T09:08:59;28.80;;;25.90;;
31808;SDS011;18379;48.208;-1.518;2022-12-16T09:14:19;33.30;;;29.80;;
31808;SDS011;18379;48.208;-1.518;2022-12-16T09:19:58;30.30;;;26.10;;
31808;SDS011;18379;48.208;-1.518;2022-12-16T09:25:18;48.67;;;34.63;;
31808;SDS011;18379;48.208;-1.518;2022-12-16T09:30:37;54.53;;;43.60;;
31808;SDS011;18379;48.208;-1.518;2022-12-16T09:35:56;29.97;;;26.90;;
31808;SDS011;18379;48.208;-1.518;2022-12-16T09:46:56;54.50;;;41.80;;
31808;SDS011;18379;48.208;-1.518;2022-12-16T09:52:49;54.63;;;43.83;;
31808;SDS011;18379;48.208;-1.518;2022-12-16T09:58:18;46.03;;;37.37;;
31808;SDS011;18379;48.208;-1.518;2022-12-16T10:03:40;56.00;;;43.20;;
31808;SDS011;18379;48.208;-1.518;2022-12-16T10:09:15;37.93;;;32.27;;
31808;SDS011;18379;48.208;-1.518;2022-12-16T10:14:40;54.20;;;44.43;;
31808;SDS011;18379;48.208;-1.518;2022-12-16T10:20:29;46.87;;;38.80;;
31808;SDS011;18379;48.208;-1.518;2022-12-16T10:25:59;34.47;;;30.70;;
31808;SDS011;18379;48.208;-1.518;2022-12-16T10:31:33;47.70;;;41.23;;
31808;SDS011;18379;48.208;-1.518;2022-12-16T10:36:54;32.83;;;29.53;;
31808;SDS011;18379;48.208;-1.518;2022-12-16T10:42:21;57.23;;;47.27;;
31808;SDS011;18379;48.208;-1.518;2022-12-16T10:47:46;62.97;;;48.93;;
31808;SDS011;18379;48.208;-1.518;2022-12-16T10:58:38;47.80;;;40.43;;
31808;SDS011;18379;48.208;-1.518;2022-12-16T11:10:03;38.87;;;35.00;;
31808;SDS011;18379;48.208;-1.518;2022-12-16T11:15:48;47.37;;;42.33;;
31808;SDS011;18379;48.208;-1.518;2022-12-16T11:21:24;36.47;;;32.97;;
31808;SDS011;18379;48.208;-1.518;2022-12-16T11:26:51;55.50;;;48.73;;
31808;SDS011;18379;48.208;-1.518;2022-12-16T11:32:21;55.80;;;49.87;;
31808;SDS011;18379;48.208;-1.518;2022-12-16T11:37:42;64.37;;;49.33;;
31808;SDS011;18379;48.208;-1.518;2022-12-16T11:43:04;57.90;;;46.50;;
31808;SDS011;18379;48.208;-1.518;2022-12-16T11:48:31;37.07;;;33.87;;
31808;SDS011;18379;48.208;-1.518;2022-12-16T11:54:30;36.10;;;33.00;;
31808;SDS011;18379;48.208;-1.518;2022-12-16T11:59:57;37.33;;;34.03;;
31808;SDS011;18379;48.208;-1.518;2022-12-16T12:05:25;39.77;;;36.17;;
31808;SDS011;18379;48.208;-1.518;2022-12-16T12:21:52;35.87;;;33.10;;
31808;SDS011;18379;48.208;-1.518;2022-12-16T12:43:56;54.87;;;49.57;;
31808;SDS011;18379;48.208;-1.518;2022-12-16T13:00:58;35.73;;;33.07;;
31808;SDS011;18379;48.208;-1.518;2022-12-16T13:06:21;35.73;;;33.00;;
31808;SDS011;18379;48.208;-1.518;2022-12-16T13:12:17;53.73;;;48.57;;
31808;SDS011;18379;48.208;-1.518;2022-12-16T13:17:23;35.53;;;33.13;;
31808;SDS011;18379;48.208;-1.518;2022-12-16T13:22:43;51.43;;;46.57;;
31808;SDS011;18379;48.208;-1.518;2022-12-16T13:28:04;49.93;;;45.30;;
31808;SDS011;18379;48.208;-1.518;2022-12-16T13:33:38;49.40;;;44.90;;
31808;SDS011;18379;48.208;-1.518;2022-12-16T13:38:58;35.07;;;32.57;;
31808;SDS011;18379;48.208;-1.518;2022-12-16T13:56:02;47.23;;;42.87;;
31808;SDS011;18379;48.208;-1.518;2022-12-16T14:01:27;36.10;;;33.23;;
31808;SDS011;18379;48.208;-1.518;2022-12-16T14:06:59;35.13;;;32.73;;
31808;SDS011;18379;48.208;-1.518;2022-12-16T14:17:59;52.23;;;47.40;;
31808;SDS011;18379;48.208;-1.518;2022-12-16T14:23:37;36.13;;;33.03;;
31808;SDS011;18379;48.208;-1.518;2022-12-16T14:29:14;52.67;;;47.23;;
31808;SDS011;18379;48.208;-1.518;2022-12-16T14:34:43;49.03;;;44.43;;
31808;SDS011;18379;48.208;-1.518;2022-12-16T14:40:04;49.57;;;44.27;;
31808;SDS011;18379;48.208;-1.518;2022-12-16T14:45:46;53.80;;;48.53;;
31808;SDS011;18379;48.208;-1.518;2022-12-16T14:56:45;50.63;;;46.00;;
31808;SDS011;18379;48.208;-1.518;2022-12-16T15:02:13;56.93;;;48.60;;
31808;SDS011;18379;48.208;-1.518;2022-12-16T15:07:39;54.50;;;48.63;;
31808;SDS011;18379;48.208;-1.518;2022-12-16T15:12:58;46.40;;;39.27;;
31808;SDS011;18379;48.208;-1.518;2022-12-16T15:18:20;54.87;;;48.73;;
31808;SDS011;18379;48.208;-1.518;2022-12-16T15:23:43;54.53;;;49.20;;
31808;SDS011;18379;48.208;-1.518;2022-12-16T15:29:03;47.37;;;42.70;;
31808;SDS011;18379;48.208;-1.518;2022-12-16T15:39:42;54.10;;;48.87;;
31808;SDS011;18379;48.208;-1.518;2022-12-16T15:45:02;42.93;;;38.90;;
31808;SDS011;18379;48.208;-1.518;2022-12-16T15:50:25;40.13;;;35.97;;
31808;SDS011;18379;48.208;-1.518;2022-12-16T15:55:52;42.17;;;38.27;;
31808;SDS011;18379;48.208;-1.518;2022-12-16T16:01:18;45.47;;;41.27;;
31808;SDS011;18379;48.208;-1.518;2022-12-16T16:06:47;40.77;;;37.03;;
31808;SDS011;18379;48.208;-1.518;2022-12-16T16:12:11;41.40;;;37.30;;
31808;SDS011;18379;48.208;-1.518;2022-12-16T16:17:31;39.60;;;35.70;;
31808;SDS011;18379;48.208;-1.518;2022-12-16T16:22:50;87.90;;;55.27;;
31808;SDS011;18379;48.208;-1.518;2022-12-16T16:28:10;54.73;;;45.93;;
31808;SDS011;18379;48.208;-1.518;2022-12-16T16:33:29;37.63;;;33.80;;
31808;SDS011;18379;48.208;-1.518;2022-12-16T16:38:48;38.80;;;35.27;;
31808;SDS011;18379;48.208;-1.518;2022-12-16T16:44:08;43.63;;;39.00;;
31808;SDS011;18379;48.208;-1.518;2022-12-16T16:49:28;35.80;;;32.37;;
31808;SDS011;18379;48.208;-1.518;2022-12-16T16:54:53;37.07;;;33.47;;
31808;SDS011;18379;48.208;-1.518;2022-12-16T17:00:12;42.53;;;34.83;;
31808;SDS011;18379;48.208;-1.518;2022-12-16T17:05:32;36.80;;;33.50;;
31808;SDS011;18379;48.208;-1.518;2022-12-16T17:10:51;35.80;;;32.43;;
31808;SDS011;18379;48.208;-1.518;2022-12-16T17:16:11;39.43;;;35.27;;
31808;SDS011;18379;48.208;-1.518;2022-12-16T17:21:32;41.43;;;34.10;;
31808;SDS011;18379;48.208;-1.518;2022-12-16T17:26:51;61.80;;;50.13;;
31808;SDS011;18379;48.208;-1.518;2022-12-16T17:32:11;47.50;;;42.13;;
31808;SDS011;18379;48.208;-1.518;2022-12-16T17:37:30;35.23;;;31.87;;
31808;SDS011;18379;48.208;-1.518;2022-12-16T17:42:49;49.93;;;43.07;;
31808;SDS011;18379;48.208;-1.518;2022-12-16T17:48:09;40.57;;;36.37;;
31808;SDS011;18379;48.208;-1.518;2022-12-16T17:53:31;51.17;;;42.57;;
31808;SDS011;18379;48.208;-1.518;2022-12-16T17:58:50;39.27;;;34.93;;
31808;SDS011;18379;48.208;-1.518;2022-12-16T18:04:09;49.13;;;42.20;;
31808;SDS011;18379;48.208;-1.518;2022-12-16T18:09:29;38.93;;;34.90;;
31808;SDS011;18379;48.208;-1.518;2022-12-16T18:14:59;53.30;;;43.37;;
31808;SDS011;18379;48.208;-1.518;2022-12-16T18:20:19;44.60;;;35.33;;
31808;SDS011;18379;48.208;-1.518;2022-12-16T18:25:38;45.47;;;38.60;;
31808;SDS011;18379;48.208;-1.518;2022-12-16T18:31:02;45.07;;;36.87;;
31808;SDS011;18379;48.208;-1.518;2022-12-16T18:36:22;37.17;;;33.33;;
31808;SDS011;18379;48.208;-1.518;2022-12-16T18:41:43;38.60;;;33.40;;
31808;SDS011;18379;48.208;-1.518;2022-12-16T18:47:04;65.43;;;46.20;;
31808;SDS011;18379;48.208;-1.518;2022-12-16T18:52:24;61.80;;;43.97;;
31808;SDS011;18379;48.208;-1.518;2022-12-16T18:57:43;52.17;;;42.33;;
31808;SDS011;18379;48.208;-1.518;2022-12-16T19:03:03;41.13;;;36.67;;
31808;SDS011;18379;48.208;-1.518;2022-12-16T19:08:22;37.03;;;33.30;;
31808;SDS011;18379;48.208;-1.518;2022-12-16T19:13:41;42.80;;;37.20;;
31808;SDS011;18379;48.208;-1.518;2022-12-16T19:19:01;50.10;;;40.10;;
31808;SDS011;18379;48.208;-1.518;2022-12-16T19:24:20;42.80;;;36.83;;
31808;SDS011;18379;48.208;-1.518;2022-12-16T19:29:39;81.30;;;56.40;;
31808;SDS011;18379;48.208;-1.518;2022-12-16T19:34:59;53.60;;;42.80;;
31808;SDS011;18379;48.208;-1.518;2022-12-16T19:40:18;49.73;;;40.13;;
31808;SDS011;18379;48.208;-1.518;2022-12-16T19:45:37;62.00;;;45.47;;
31808;SDS011;18379;48.208;-1.518;2022-12-16T19:50:57;59.80;;;43.93;;
31808;SDS011;18379;48.208;-1.518;2022-12-16T19:56:17;78.90;;;48.00;;
31808;SDS011;18379;48.208;-1.518;2022-12-16T20:01:37;85.00;;;51.63;;
31808;SDS011;18379;48.208;-1.518;2022-12-16T20:06:56;81.50;;;50.47;;
31808;SDS011;18379;48.208;-1.518;2022-12-16T20:12:16;61.73;;;45.00;;
31808;SDS011;18379;48.208;-1.518;2022-12-16T20:17:35;57.53;;;42.73;;
31808;SDS011;18379;48.208;-1.518;2022-12-16T20:22:54;54.23;;;41.00;;
31808;SDS011;18379;48.208;-1.518;2022-12-16T20:28:13;56.17;;;42.20;;
31808;SDS011;18379;48.208;-1.518;2022-12-16T20:33:33;67.67;;;47.17;;
31808;SDS011;18379;48.208;-1.518;2022-12-16T20:38:52;64.07;;;44.67;;
31808;SDS011;18379;48.208;-1.518;2022-12-16T20:44:11;72.73;;;46.37;;
31808;SDS011;18379;48.208;-1.518;2022-12-16T20:49:31;87.30;;;50.77;;
31808;SDS011;18379;48.208;-1.518;2022-12-16T20:54:50;100.43;;;52.93;;
31808;SDS011;18379;48.208;-1.518;2022-12-16T21:00:09;100.43;;;61.47;;
31808;SDS011;18379;48.208;-1.518;2022-12-16T21:05:30;94.33;;;54.17;;
31808;SDS011;18379;48.208;-1.518;2022-12-16T21:10:49;99.73;;;54.47;;
31808;SDS011;18379;48.208;-1.518;2022-12-16T21:16:08;86.43;;;52.50;;
31808;SDS011;18379;48.208;-1.518;2022-12-16T21:21:27;92.23;;;53.70;;
31808;SDS011;18379;48.208;-1.518;2022-12-16T21:26:47;85.67;;;50.47;;
31808;SDS011;18379;48.208;-1.518;2022-12-16T21:32:06;80.87;;;50.40;;
31808;SDS011;18379;48.208;-1.518;2022-12-16T21:37:26;82.10;;;50.00;;
31808;SDS011;18379;48.208;-1.518;2022-12-16T21:42:45;72.57;;;48.80;;
31808;SDS011;18379;48.208;-1.518;2022-12-16T21:48:04;108.37;;;58.03;;
31808;SDS011;18379;48.208;-1.518;2022-12-16T21:53:23;106.10;;;57.07;;
31808;SDS011;18379;48.208;-1.518;2022-12-16T21:58:43;114.97;;;62.97;;
31808;SDS011;18379;48.208;-1.518;2022-12-16T22:04:02;118.03;;;64.20;;
31808;SDS011;18379;48.208;-1.518;2022-12-16T22:09:21;82.83;;;50.87;;
31808;SDS011;18379;48.208;-1.518;2022-12-16T22:14:40;90.43;;;51.33;;
31808;SDS011;18379;48.208;-1.518;2022-12-16T22:20:00;85.37;;;48.23;;
31808;SDS011;18379;48.208;-1.518;2022-12-16T22:25:39;68.80;;;43.83;;
31808;SDS011;18379;48.208;-1.518;2022-12-16T22:30:58;74.33;;;43.47;;
31808;SDS011;18379;48.208;-1.518;2022-12-16T22:36:18;59.23;;;38.33;;
31808;SDS011;18379;48.208;-1.518;2022-12-16T22:41:37;59.10;;;42.10;;
31808;SDS011;18379;48.208;-1.518;2022-12-16T22:46:56;66.63;;;41.07;;
31808;SDS011;18379;48.208;-1.518;2022-12-16T22:52:16;63.07;;;41.73;;
31808;SDS011;18379;48.208;-1.518;2022-12-16T22:57:35;72.43;;;46.03;;
31808;SDS011;18379;48.208;-1.518;2022-12-16T23:02:55;59.73;;;40.97;;
31808;SDS011;18379;48.208;-1.518;2022-12-16T23:08:15;73.67;;;44.63;;
31808;SDS011;18379;48.208;-1.518;2022-12-16T23:13:34;87.43;;;49.60;;
31808;SDS011;18379;48.208;-1.518;2022-12-16T23:18:53;80.60;;;46.30;;
31808;SDS011;18379;48.208;-1.518;2022-12-16T23:24:13;86.70;;;48.73;;
31808;SDS011;18379;48.208;-1.518;2022-12-16T23:29:32;74.50;;;46.90;;
31808;SDS011;18379;48.208;-1.518;2022-12-16T23:34:51;60.80;;;41.17;;
31808;SDS011;18379;48.208;-1.518;2022-12-16T23:40:10;62.50;;;38.93;;
31808;SDS011;18379;48.208;-1.518;2022-12-16T23:45:29;67.00;;;38.73;;
31808;SDS011;18379;48.208;-1.518;2022-12-16T23:50:49;46.67;;;32.93;;
31808;SDS011;18379;48.208;-1.518;2022-12-16T23:56:09;40.63;;;30.83;;
